METAR Data
IDs: Format: Raw Decoded Include TAF

Data at: 2120 UTC 21 Sep 2021

KORS 212115Z AUTO 31007KT 10SM CLR 17/10 A3012 RMK AO2